createdAt,value
2023-04-19T00:00:17.482Z,2.10
2023-04-19T00:02:44.731Z,1.80
2023-04-19T00:05:13.653Z,1.88
2023-04-19T00:12:35.488Z,1.80
2023-04-19T00:15:02.607Z,2.17
2023-04-19T00:17:29.854Z,1.80
2023-04-19T00:19:57.703Z,1.55
2023-04-19T00:22:24.995Z,1.85
2023-04-19T00:24:52.162Z,1.92
2023-04-19T00:27:19.572Z,1.80
2023-04-19T00:29:46.639Z,1.63
2023-04-19T00:32:13.754Z,1.80
2023-04-19T00:34:40.861Z,1.67
2023-04-19T00:37:08.784Z,2.03
2023-04-19T00:39:36.264Z,1.70
2023-04-19T00:42:03.395Z,1.58
2023-04-19T00:44:30.832Z,1.90
2023-04-19T00:46:58.173Z,1.67
2023-04-19T00:49:26.057Z,1.58
2023-04-19T00:51:53.356Z,2.03
2023-04-19T00:54:20.887Z,1.63
2023-04-19T00:56:48.204Z,1.73
2023-04-19T00:59:15.838Z,1.65
2023-04-19T01:01:43.050Z,1.83
2023-04-19T01:04:10.884Z,1.70
2023-04-19T01:06:39.151Z,1.52
2023-04-19T01:09:06.448Z,1.48
2023-04-19T01:11:34.954Z,1.70
2023-04-19T01:14:02.205Z,1.52
2023-04-19T01:16:29.417Z,1.95
2023-04-19T01:18:57.043Z,1.98
2023-04-19T01:21:24.288Z,1.67
2023-04-19T01:23:52.333Z,1.70
2023-04-19T01:26:19.950Z,1.85
2023-04-19T01:28:47.085Z,2.03
2023-04-19T01:31:14.380Z,1.85
2023-04-19T01:33:41.508Z,1.52
2023-04-19T01:36:08.865Z,1.63
2023-04-19T01:38:36.329Z,1.40
2023-04-19T01:41:03.465Z,1.80
2023-04-19T01:43:30.866Z,1.60
2023-04-19T01:45:58.041Z,1.63
2023-04-19T01:48:25.159Z,1.55
2023-04-19T01:50:52.304Z,2.00
2023-04-19T01:53:19.451Z,1.60
2023-04-19T01:55:46.745Z,1.70
2023-04-19T01:58:13.850Z,1.60
2023-04-19T02:00:40.949Z,1.70
2023-04-19T02:03:08.300Z,1.58
2023-04-19T02:05:35.517Z,1.70
2023-04-19T02:08:02.746Z,1.55
2023-04-19T02:10:29.897Z,1.70
2023-04-19T02:12:57.105Z,1.33
2023-04-19T02:15:24.397Z,1.80
2023-04-19T02:17:51.556Z,1.52
2023-04-19T02:20:18.775Z,1.80
2023-04-19T02:22:47.806Z,1.77
2023-04-19T02:27:42.795Z,1.50
2023-04-19T02:30:10.164Z,1.55
2023-04-19T02:32:37.400Z,1.67
2023-04-19T02:35:04.622Z,1.67
2023-04-19T02:37:31.784Z,2.55
2023-04-19T02:39:58.852Z,1.50
2023-04-19T02:42:25.996Z,1.80
2023-04-19T02:44:53.164Z,1.58
2023-04-19T02:47:20.929Z,1.58
2023-04-19T02:49:48.011Z,1.80
2023-04-19T02:52:15.319Z,1.40
2023-04-19T02:54:42.547Z,1.70
2023-04-19T02:57:09.628Z,1.63
2023-04-19T02:59:36.714Z,1.35
2023-04-19T03:02:03.857Z,1.58
2023-04-19T03:04:32.279Z,1.67
2023-04-19T03:06:59.458Z,1.40
2023-04-19T03:09:26.591Z,1.35
2023-04-19T03:11:53.696Z,1.55
2023-04-19T03:14:20.804Z,1.60
2023-04-19T03:16:47.894Z,1.40
2023-04-19T03:19:15.012Z,1.63
2023-04-19T03:21:42.188Z,1.65
2023-04-19T03:24:09.313Z,1.40
2023-04-19T03:26:36.579Z,1.83
2023-04-19T03:29:03.758Z,1.70
2023-04-19T03:31:30.917Z,1.85
2023-04-19T03:33:58.069Z,1.45
2023-04-19T03:36:25.244Z,1.77
2023-04-19T03:38:52.393Z,1.58
2023-04-19T03:41:20.451Z,1.70
2023-04-19T03:43:47.659Z,1.85
2023-04-19T03:46:14.893Z,1.40
2023-04-19T03:48:42.046Z,2.83
2023-04-19T03:51:09.354Z,1.60
2023-04-19T03:53:37.071Z,2.00
2023-04-19T03:56:07.176Z,1.80
2023-04-19T03:58:34.582Z,1.92
2023-04-19T04:01:02.754Z,1.92
2023-04-19T04:03:30.049Z,1.58
2023-04-19T04:05:57.297Z,1.70
2023-04-19T04:08:24.482Z,1.55
2023-04-19T04:10:51.647Z,1.50
2023-04-19T04:13:18.737Z,1.80
2023-04-19T04:15:45.870Z,2.00
2023-04-19T04:18:13.213Z,1.77
2023-04-19T04:20:41.088Z,1.92
2023-04-19T04:23:09.088Z,1.73
2023-04-19T04:25:37.538Z,1.90
2023-04-19T04:28:05.026Z,2.10
2023-04-19T04:30:32.222Z,2.13
2023-04-19T04:32:59.461Z,2.08
2023-04-19T04:35:27.560Z,2.25
2023-04-19T04:37:54.708Z,2.42
2023-04-19T04:40:22.162Z,2.28
2023-04-19T04:42:49.499Z,2.05
2023-04-19T04:45:18.492Z,2.10
2023-04-19T04:47:48.988Z,2.17
2023-04-19T04:50:16.109Z,1.95
2023-04-19T04:52:43.290Z,2.20
2023-04-19T04:55:11.077Z,1.80
2023-04-19T04:57:38.255Z,2.00
2023-04-19T05:00:07.016Z,2.10
2023-04-19T05:02:34.522Z,2.08
2023-04-19T05:05:01.792Z,1.70
2023-04-19T05:07:28.920Z,1.85
2023-04-19T05:09:56.083Z,1.77
2023-04-19T05:12:23.169Z,1.73
2023-04-19T05:14:50.363Z,1.95
2023-04-19T05:17:17.474Z,1.92
2023-04-19T05:19:44.603Z,1.98
2023-04-19T05:22:11.925Z,2.00
2023-04-19T05:24:40.510Z,2.00
2023-04-19T05:27:09.677Z,1.90
2023-04-19T05:29:37.056Z,2.50
2023-04-19T05:32:04.227Z,2.05
2023-04-19T05:34:31.413Z,2.20
2023-04-19T05:36:58.593Z,1.70
2023-04-19T05:39:25.718Z,1.98
2023-04-19T05:41:52.857Z,1.70
2023-04-19T05:44:19.926Z,1.77
2023-04-19T05:46:47.001Z,1.80
2023-04-19T05:49:14.101Z,1.73
2023-04-19T05:51:41.319Z,2.00
2023-04-19T05:54:12.451Z,1.85
2023-04-19T05:56:40.061Z,1.85
2023-04-19T05:59:08.439Z,1.70
2023-04-19T06:01:35.682Z,1.40
2023-04-19T06:04:02.980Z,1.95
2023-04-19T06:06:30.371Z,1.98
2023-04-19T06:08:57.526Z,1.60
2023-04-19T06:11:31.751Z,1.75
2023-04-19T06:14:06.501Z,1.98
2023-04-19T06:16:33.711Z,1.90
2023-04-19T06:19:01.529Z,1.70
2023-04-19T06:21:31.565Z,1.70
2023-04-19T06:23:58.773Z,1.90
2023-04-19T06:26:26.175Z,1.58
2023-04-19T06:28:53.458Z,1.80
2023-04-19T06:31:20.765Z,1.77
2023-04-19T06:33:47.892Z,1.90
2023-04-19T06:36:15.034Z,1.67
2023-04-19T06:38:44.497Z,1.65
2023-04-19T06:41:11.781Z,1.73
2023-04-19T06:43:40.806Z,1.70
2023-04-19T06:46:08.277Z,1.67
2023-04-19T06:48:35.539Z,1.63
2023-04-19T06:51:04.292Z,1.60
2023-04-19T06:53:31.535Z,1.70
2023-04-19T06:56:02.728Z,1.65
2023-04-19T06:58:30.121Z,1.70
2023-04-19T07:00:57.977Z,1.77
2023-04-19T07:03:25.245Z,1.75
2023-04-19T07:05:52.767Z,2.22
2023-04-19T07:08:19.848Z,1.65
2023-04-19T07:10:46.981Z,1.45
2023-04-19T07:13:14.227Z,1.70
2023-04-19T07:15:41.536Z,1.40
2023-04-19T07:18:11.104Z,1.60
2023-04-19T07:20:38.418Z,1.40
2023-04-19T07:23:05.533Z,1.80
2023-04-19T07:25:32.679Z,1.50
2023-04-19T07:27:59.764Z,1.75
2023-04-19T07:30:26.896Z,1.50
2023-04-19T07:32:54.069Z,1.80
2023-04-19T07:35:21.253Z,1.98
2023-04-19T07:37:48.492Z,1.90
2023-04-19T07:40:15.765Z,2.00
2023-04-19T07:42:43.826Z,2.08
2023-04-19T07:45:11.186Z,1.80
2023-04-19T07:47:38.301Z,2.13
2023-04-19T07:50:07.739Z,2.13
2023-04-19T07:52:35.130Z,2.22
2023-04-19T07:55:03.882Z,2.10
2023-04-19T07:57:31.693Z,2.20
2023-04-19T07:59:59.317Z,1.95
2023-04-19T08:02:30.628Z,2.10
2023-04-19T08:04:58.226Z,2.25
2023-04-19T08:07:26.171Z,2.13
2023-04-19T08:09:53.494Z,2.13
2023-04-19T08:15:02.484Z,2.20
2023-04-19T08:17:39.888Z,2.22
2023-04-19T08:20:11.105Z,2.40
2023-04-19T08:22:39.352Z,2.30
2023-04-19T08:25:07.298Z,1.95
2023-04-19T08:27:34.568Z,2.10
2023-04-19T08:30:01.648Z,2.03
2023-04-19T08:32:28.857Z,2.25
2023-04-19T08:34:57.355Z,2.70
2023-04-19T08:37:25.546Z,2.53
2023-04-19T08:39:52.630Z,2.30
2023-04-19T08:42:33.149Z,2.20
2023-04-19T08:47:51.892Z,2.20
2023-04-19T08:50:32.554Z,2.15
2023-04-19T08:53:16.484Z,2.33
2023-04-19T08:56:08.546Z,2.45
2023-04-19T08:58:54.911Z,2.20
2023-04-19T09:06:25.092Z,1.95
2023-04-19T09:08:58.256Z,2.85
2023-04-19T09:11:38.646Z,2.33
2023-04-19T09:14:09.497Z,2.30
2023-04-19T09:16:39.846Z,1.98
2023-04-19T09:19:22.171Z,1.90
2023-04-19T09:21:53.795Z,2.13
2023-04-19T09:25:04.545Z,2.28
2023-04-19T09:27:36.351Z,2.05
2023-04-19T09:30:04.628Z,2.20
2023-04-19T09:32:46.486Z,2.00
2023-04-19T09:35:13.953Z,2.40
2023-04-19T09:38:02.071Z,2.30
2023-04-19T09:40:28.977Z,2.30
2023-04-19T09:45:30.383Z,1.98
2023-04-19T09:48:05.140Z,2.10
2023-04-19T09:50:34.231Z,2.08
2023-04-19T09:53:10.859Z,2.03
2023-04-19T09:55:48.876Z,2.00
2023-04-19T09:58:29.292Z,1.90
2023-04-19T10:01:13.251Z,1.90
2023-04-19T10:03:43.661Z,2.03
2023-04-19T10:06:26.984Z,1.90
2023-04-19T10:08:58.657Z,1.58
2023-04-19T10:11:27.528Z,2.13
2023-04-19T10:13:57.111Z,1.92
2023-04-19T10:16:24.419Z,1.70
2023-04-19T10:18:52.401Z,1.60
2023-04-19T10:21:19.894Z,1.70
2023-04-19T10:23:47.283Z,1.90
2023-04-19T10:26:14.554Z,1.60
2023-04-19T10:28:42.506Z,1.77
2023-04-19T10:31:13.340Z,1.75
2023-04-19T10:33:40.996Z,1.80
2023-04-19T10:36:12.075Z,1.60
2023-04-19T10:38:40.475Z,1.50
2023-04-19T10:41:17.951Z,1.75
2023-04-19T10:43:47.465Z,1.83
2023-04-19T10:46:16.445Z,1.60
2023-04-19T10:48:59.713Z,1.50
2023-04-19T10:51:33.080Z,1.50
2023-04-19T10:54:01.837Z,1.60
2023-04-19T10:56:36.079Z,1.42
2023-04-19T10:59:24.080Z,1.52
2023-04-19T11:01:53.084Z,1.48
2023-04-19T11:04:24.009Z,1.35
2023-04-19T11:06:54.083Z,1.48
2023-04-19T11:09:27.175Z,1.50
2023-04-19T11:11:55.533Z,1.52
2023-04-19T11:14:22.646Z,1.55
2023-04-19T11:16:49.797Z,1.40
2023-04-19T11:19:20.785Z,1.52
2023-04-19T11:21:48.675Z,1.52
2023-04-19T11:24:16.329Z,1.40
2023-04-19T11:26:44.227Z,1.50
2023-04-19T11:29:11.403Z,1.50
2023-04-19T11:31:38.897Z,1.23
2023-04-19T11:34:06.488Z,1.40
2023-04-19T11:36:36.673Z,1.30
2023-04-19T11:39:06.418Z,1.42
2023-04-19T11:41:39.698Z,1.30
2023-04-19T11:44:17.365Z,1.60
2023-04-19T11:46:59.274Z,1.58
2023-04-19T11:49:27.377Z,1.10
2023-04-19T11:51:58.523Z,1.40
2023-04-19T11:54:28.748Z,1.25
2023-04-19T11:57:06.598Z,1.25
2023-04-19T11:59:34.953Z,1.00
2023-04-19T12:02:12.057Z,1.17
2023-04-19T12:04:41.293Z,1.10
2023-04-19T12:07:11.023Z,1.25
2023-04-19T12:09:38.889Z,1.13
2023-04-19T12:12:07.068Z,1.23
2023-04-19T12:14:34.341Z,1.30
2023-04-19T12:17:11.891Z,1.30
2023-04-19T12:19:44.232Z,1.33
2023-04-19T12:22:12.788Z,1.23
2023-04-19T12:24:40.820Z,1.23
2023-04-19T12:27:08.313Z,1.05
2023-04-19T12:29:35.879Z,0.98
2023-04-19T12:32:03.470Z,1.20
2023-04-19T12:34:30.763Z,1.00
2023-04-19T12:36:57.988Z,1.00
2023-04-19T12:39:25.417Z,1.25
2023-04-19T12:41:52.638Z,1.08
2023-04-19T12:44:19.775Z,1.33
2023-04-19T12:46:47.038Z,1.20
2023-04-19T12:49:14.478Z,1.10
2023-04-19T12:51:42.785Z,1.10
2023-04-19T12:54:09.986Z,1.00
2023-04-19T12:56:37.343Z,1.10
2023-04-19T12:59:04.539Z,1.10
2023-04-19T13:01:32.885Z,1.15
2023-04-19T13:04:00.382Z,0.98
2023-04-19T13:06:27.751Z,1.13
2023-04-19T13:08:55.257Z,1.20
2023-04-19T13:11:23.480Z,1.02
2023-04-19T13:13:52.710Z,1.15
2023-04-19T13:18:47.172Z,1.20
2023-04-19T13:21:14.396Z,0.82
2023-04-19T13:23:43.761Z,0.90
2023-04-19T13:26:10.959Z,1.20
2023-04-19T13:28:38.076Z,1.02
2023-04-19T13:31:05.694Z,0.93
2023-04-19T13:33:32.904Z,1.00
2023-04-19T13:36:00.097Z,0.90
2023-04-19T13:38:27.237Z,1.10
2023-04-19T13:40:54.543Z,1.10
2023-04-19T13:43:21.992Z,1.08
2023-04-19T13:45:49.226Z,0.90
2023-04-19T13:48:16.440Z,1.08
2023-04-19T13:50:43.715Z,0.90
2023-04-19T13:53:10.827Z,1.10
2023-04-19T13:55:38.015Z,1.00
2023-04-19T13:58:05.382Z,1.00
2023-04-19T14:00:33.877Z,1.00
2023-04-19T14:03:01.314Z,1.02
2023-04-19T14:05:31.470Z,1.00
2023-04-19T14:07:58.749Z,0.98
2023-04-19T14:10:25.975Z,1.00
2023-04-19T14:12:53.348Z,1.20
2023-04-19T14:15:20.877Z,1.08
2023-04-19T14:17:48.141Z,0.80
2023-04-19T14:20:15.705Z,0.90
2023-04-19T14:22:43.194Z,0.90
2023-04-19T14:25:10.778Z,0.82
2023-04-19T14:27:38.402Z,0.93
2023-04-19T14:30:06.718Z,1.00
2023-04-19T14:32:33.910Z,0.82
2023-04-19T14:35:01.995Z,1.00
2023-04-19T14:37:29.185Z,0.85
2023-04-19T14:39:56.414Z,0.80
2023-04-19T14:42:23.652Z,0.90
2023-04-19T14:44:51.624Z,1.08
2023-04-19T14:47:18.813Z,0.90
2023-04-19T14:49:45.917Z,1.10
2023-04-19T14:52:13.121Z,0.80
2023-04-19T14:54:40.294Z,0.85
2023-04-19T14:57:07.595Z,1.10
2023-04-19T14:59:34.775Z,1.00
2023-04-19T15:02:01.933Z,1.00
2023-04-19T15:04:29.246Z,1.10
2023-04-19T15:06:56.614Z,0.77
2023-04-19T15:09:23.812Z,0.90
2023-04-19T15:11:50.999Z,0.70
2023-04-19T15:14:18.254Z,1.00
2023-04-19T15:16:45.336Z,0.88
2023-04-19T15:19:12.459Z,0.80
2023-04-19T15:21:39.704Z,0.82
2023-04-19T15:24:08.009Z,0.95
2023-04-19T15:26:35.919Z,1.00
2023-04-19T15:29:03.036Z,0.75
2023-04-19T15:31:30.216Z,0.90
2023-04-19T15:33:57.388Z,0.95
2023-04-19T15:36:24.908Z,1.00
2023-04-19T15:38:52.086Z,0.93
2023-04-19T15:41:19.228Z,1.08
2023-04-19T15:43:46.492Z,1.10
2023-04-19T15:46:13.753Z,0.90
2023-04-19T15:48:41.916Z,1.10
2023-04-19T15:51:09.241Z,1.15
2023-04-19T15:53:36.366Z,1.10
2023-04-19T15:56:04.155Z,0.93
2023-04-19T15:58:31.342Z,1.20
2023-04-19T16:00:58.482Z,1.20
2023-04-19T16:03:25.911Z,1.40
2023-04-19T16:05:53.221Z,1.33
2023-04-19T16:08:20.716Z,1.15
2023-04-19T16:10:48.204Z,1.20
2023-04-19T16:13:15.765Z,1.50
2023-04-19T16:15:43.301Z,1.40
2023-04-19T16:18:10.798Z,1.42
2023-04-19T16:20:38.465Z,1.60
2023-04-19T16:23:05.775Z,1.27
2023-04-19T16:25:33.341Z,1.45
2023-04-19T16:28:00.643Z,1.60
2023-04-19T16:30:28.422Z,1.13
2023-04-19T16:32:56.386Z,1.30
2023-04-19T16:35:24.009Z,1.80
2023-04-19T16:37:51.471Z,1.63
2023-04-19T16:40:18.655Z,1.42
2023-04-19T16:42:45.865Z,1.52
2023-04-19T16:45:13.132Z,1.67
2023-04-19T16:47:40.478Z,1.77
2023-04-19T16:50:07.911Z,1.65
2023-04-19T16:52:35.774Z,1.90
2023-04-19T16:55:06.087Z,1.80
2023-04-19T16:57:33.408Z,1.95
2023-04-19T17:00:00.959Z,1.90
2023-04-19T17:02:28.423Z,1.90
2023-04-19T17:04:56.518Z,2.03
2023-04-19T17:07:23.821Z,2.03
2023-04-19T17:09:51.084Z,1.90
2023-04-19T17:12:18.277Z,2.40
2023-04-19T17:14:45.671Z,2.25
2023-04-19T17:17:12.793Z,2.13
2023-04-19T17:19:39.938Z,1.95
2023-04-19T17:22:07.135Z,2.17
2023-04-19T17:24:34.376Z,2.22
2023-04-19T17:27:02.310Z,2.30
2023-04-19T17:29:29.494Z,2.25
2023-04-19T17:31:56.782Z,2.10
2023-04-19T17:34:24.116Z,2.25
2023-04-19T17:36:51.289Z,2.30
2023-04-19T17:39:18.757Z,1.90
2023-04-19T17:41:46.170Z,2.20
2023-04-19T17:44:13.334Z,2.20
2023-04-19T17:46:40.634Z,1.90
2023-04-19T17:49:08.052Z,2.38
2023-04-19T17:51:35.350Z,1.90
2023-04-19T17:54:02.465Z,1.98
2023-04-19T17:56:29.592Z,2.05
2023-04-19T17:58:56.961Z,1.90
2023-04-19T18:01:24.227Z,1.67
2023-04-19T18:03:51.534Z,1.75
2023-04-19T18:06:20.885Z,1.70
2023-04-19T18:08:48.205Z,1.90
2023-04-19T18:11:18.030Z,1.98
2023-04-19T18:13:45.479Z,1.60
2023-04-19T18:16:13.978Z,1.80
2023-04-19T18:18:41.084Z,1.90
2023-04-19T18:21:09.358Z,1.60
2023-04-19T18:23:36.601Z,1.73
2023-04-19T18:26:04.221Z,1.80
2023-04-19T18:28:31.540Z,1.63
2023-04-19T18:30:58.724Z,1.70
2023-04-19T18:33:25.983Z,1.60
2023-04-19T18:35:53.923Z,1.67
2023-04-19T18:38:21.667Z,1.85
2023-04-19T18:40:48.943Z,1.50
2023-04-19T18:43:16.332Z,1.80
2023-04-19T18:45:43.544Z,1.77
2023-04-19T18:48:11.187Z,1.40
2023-04-19T18:50:38.509Z,1.58
2023-04-19T18:53:05.839Z,1.58
2023-04-19T18:55:33.077Z,1.40
2023-04-19T18:58:01.861Z,1.50
2023-04-19T19:00:29.065Z,1.30
2023-04-19T19:02:57.820Z,1.40
2023-04-19T19:07:52.878Z,1.20
2023-04-19T19:10:22.792Z,1.30
2023-04-19T19:13:01.293Z,1.50
2023-04-19T19:15:28.480Z,1.20
2023-04-19T19:17:55.735Z,1.40
2023-04-19T19:20:22.990Z,1.50
2023-04-19T19:22:51.252Z,1.30
2023-04-19T19:25:18.752Z,1.27
2023-04-19T19:28:02.761Z,1.30
2023-04-19T19:30:34.544Z,1.13
2023-04-19T19:33:02.871Z,1.25
2023-04-19T19:35:30.172Z,1.10
2023-04-19T19:37:57.294Z,1.23
2023-04-19T19:40:24.464Z,1.20
2023-04-19T19:42:51.596Z,1.05
2023-04-19T19:45:19.594Z,1.10
2023-04-19T19:47:49.481Z,0.88
2023-04-19T19:52:47.451Z,1.42
2023-04-19T19:55:14.574Z,1.27
2023-04-19T20:00:36.725Z,1.40
2023-04-19T20:02:59.651Z,1.08
2023-04-19T20:05:27.539Z,0.88
2023-04-19T20:08:05.680Z,1.02
2023-04-19T20:10:33.130Z,1.10
2023-04-19T20:13:01.474Z,1.00
2023-04-19T20:15:30.365Z,1.08
2023-04-19T20:17:57.650Z,1.02
2023-04-19T20:20:24.877Z,1.00
2023-04-19T20:22:52.053Z,1.05
2023-04-19T20:25:19.207Z,1.10
2023-04-19T20:27:46.281Z,1.33
2023-04-19T20:30:13.735Z,1.10
2023-04-19T20:32:42.812Z,1.00
2023-04-19T20:35:12.120Z,1.10
2023-04-19T20:37:40.150Z,0.93
2023-04-19T20:40:08.071Z,1.00
2023-04-19T20:42:35.200Z,0.90
2023-04-19T20:45:02.573Z,0.90
2023-04-19T20:47:30.844Z,1.00
2023-04-19T20:49:58.012Z,0.85
2023-04-19T20:52:25.144Z,1.00
2023-04-19T20:54:52.352Z,0.90
2023-04-19T20:57:19.498Z,0.90
2023-04-19T20:59:47.158Z,0.90
2023-04-19T21:02:14.383Z,1.08
2023-04-19T21:04:44.556Z,1.13
2023-04-19T21:07:11.705Z,0.90
2023-04-19T21:09:38.880Z,1.02
2023-04-19T21:12:06.024Z,0.85
2023-04-19T21:14:34.886Z,0.90
2023-04-19T21:19:29.263Z,1.00
2023-04-19T21:21:56.558Z,0.88
2023-04-19T21:24:23.658Z,1.00
2023-04-19T21:26:50.910Z,0.90
2023-04-19T21:29:18.170Z,0.90
2023-04-19T21:31:45.528Z,1.02
2023-04-19T21:34:12.661Z,1.17
2023-04-19T21:36:40.114Z,2.00
2023-04-19T21:39:07.273Z,1.20
2023-04-19T21:41:34.374Z,1.25
2023-04-19T21:44:01.503Z,1.48
2023-04-19T21:46:28.686Z,1.25
2023-04-19T21:48:56.348Z,1.80
2023-04-19T21:51:23.523Z,1.33
2023-04-19T21:53:50.634Z,1.40
2023-04-19T21:56:17.887Z,1.40
2023-04-19T21:58:45.043Z,1.27
2023-04-19T22:01:12.232Z,1.20
2023-04-19T22:03:39.686Z,1.42
2023-04-19T22:06:08.465Z,2.38
2023-04-19T22:08:35.685Z,1.38
2023-04-19T22:11:03.628Z,1.33
2023-04-19T22:13:33.277Z,1.30
2023-04-19T22:16:02.410Z,1.25
2023-04-19T22:18:29.695Z,1.50
2023-04-19T22:20:56.923Z,1.55
2023-04-19T22:23:23.997Z,1.10
2023-04-19T22:25:51.139Z,1.33
2023-04-19T22:28:18.262Z,1.52
2023-04-19T22:30:45.624Z,1.45
2023-04-19T22:33:12.837Z,1.30
2023-04-19T22:35:40.014Z,1.30
2023-04-19T22:38:07.537Z,1.20
2023-04-19T22:40:34.666Z,1.10
2023-04-19T22:43:01.904Z,1.48
2023-04-19T22:45:29.091Z,2.20
2023-04-19T22:47:56.246Z,1.95
2023-04-19T22:50:23.647Z,1.10
2023-04-19T22:52:51.154Z,1.20
2023-04-19T22:55:18.271Z,1.00
2023-04-19T22:57:45.832Z,1.08
2023-04-19T23:00:13.187Z,1.08
2023-04-19T23:02:40.488Z,0.85
2023-04-19T23:05:07.875Z,0.90
2023-04-19T23:07:35.104Z,0.95
2023-04-19T23:10:03.074Z,1.20
2023-04-19T23:12:31.093Z,1.10
2023-04-19T23:14:58.309Z,1.00
2023-04-19T23:17:26.344Z,1.27
2023-04-19T23:19:53.601Z,1.30
2023-04-19T23:22:20.789Z,1.05
2023-04-19T23:24:47.944Z,1.30
2023-04-19T23:27:15.145Z,1.20
2023-04-19T23:29:42.234Z,1.10
2023-04-19T23:32:09.419Z,1.10
2023-04-19T23:34:36.524Z,1.20
2023-04-19T23:37:03.612Z,1.30
2023-04-19T23:39:30.732Z,1.00
2023-04-19T23:41:58.042Z,1.10
2023-04-19T23:44:25.354Z,0.82
2023-04-19T23:46:52.533Z,1.23
2023-04-19T23:49:19.992Z,1.10
2023-04-19T23:51:50.494Z,1.20
2023-04-19T23:54:26.196Z,0.90
2023-04-19T23:56:53.697Z,0.80
2023-04-19T23:59:20.950Z,1.20
